Time;durP1;ratioP1;P1;durP2;ratioP2;P2;SDS_P1;SDS_P2;PMS_P1;PMS_P2;Temp;Humidity;BMP_temperature;BMP_pressure;BME280_temperature;BME280_humidity;BME280_pressure;Samples;Min_cycle;Max_cycle;Signal;HPM_P1;HPM_P2
2022/03/10 00:00:22;;;;;;;32.33;20.77;;;4.30;69.90;;;;;;5053782;28;20204;-66
2022/03/10 00:02:50;;;;;;;32.63;19.42;;;4.20;70.40;;;;;;5053757;28;20210;-67
2022/03/10 00:05:18;;;;;;;33.13;19.65;;;4.20;70.90;;;;;;5052973;28;20219;-66
2022/03/10 00:07:45;;;;;;;29.60;19.00;;;4.10;71.10;;;;;;5053223;28;20204;-65
2022/03/10 00:10:12;;;;;;;34.72;20.80;;;4.20;71.40;;;;;;5053350;28;20337;-66
2022/03/10 00:12:39;;;;;;;29.33;17.80;;;4.20;71.60;;;;;;5053431;28;20207;-66
2022/03/10 00:15:08;;;;;;;26.17;17.60;;;4.20;71.40;;;;;;5053093;28;20223;-65
2022/03/10 00:17:35;;;;;;;32.10;19.95;;;4.30;71.50;;;;;;5052884;28;20206;-66
2022/03/10 00:20:04;;;;;;;29.38;19.80;;;4.20;71.60;;;;;;5053161;28;20314;-66
2022/03/10 00:22:31;;;;;;;31.50;19.83;;;4.20;72.30;;;;;;5053066;28;20226;-66
2022/03/10 00:24:58;;;;;;;33.47;21.23;;;4.30;72.40;;;;;;5052995;28;20414;-66
2022/03/10 00:27:25;;;;;;;32.60;20.98;;;4.20;73.10;;;;;;5052826;28;20204;-67
2022/03/10 00:29:51;;;;;;;41.65;22.98;;;4.10;73.50;;;;;;5052697;28;20214;-66
2022/03/10 00:32:18;;;;;;;34.92;22.27;;;4.10;74.10;;;;;;5052955;28;20701;-67
2022/03/10 00:34:45;;;;;;;33.55;21.38;;;4.10;74.20;;;;;;5052774;28;20230;-67
2022/03/10 00:37:13;;;;;;;31.88;20.40;;;4.20;74.00;;;;;;5052965;28;20207;-67
2022/03/10 00:39:40;;;;;;;32.47;20.25;;;4.20;74.20;;;;;;5052953;28;20608;-67
2022/03/10 00:42:07;;;;;;;32.03;20.83;;;4.10;74.00;;;;;;5052508;28;20199;-67
2022/03/10 00:44:34;;;;;;;32.90;19.95;;;4.00;74.00;;;;;;5052552;28;20239;-67
2022/03/10 00:47:01;;;;;;;30.90;20.17;;;4.00;74.00;;;;;;5052700;28;20203;-67
2022/03/10 00:49:27;;;;;;;32.50;19.27;;;3.90;73.70;;;;;;5052558;28;20208;-67
2022/03/10 00:51:54;;;;;;;30.08;19.00;;;3.90;73.90;;;;;;5052648;28;20314;-67
2022/03/10 00:54:22;;;;;;;28.13;18.80;;;3.90;74.30;;;;;;5052499;28;20614;-66
2022/03/10 00:56:49;;;;;;;29.25;19.67;;;4.00;74.60;;;;;;5052545;28;20298;-66
2022/03/10 00:59:16;;;;;;;32.35;19.80;;;4.00;74.80;;;;;;5052429;28;20203;-65
2022/03/10 01:01:43;;;;;;;34.15;18.83;;;4.00;74.80;;;;;;5052752;28;20675;-66
2022/03/10 01:04:10;;;;;;;30.52;19.65;;;4.00;74.30;;;;;;5052166;28;20253;-66
2022/03/10 01:06:38;;;;;;;30.42;19.67;;;3.90;75.10;;;;;;5052725;28;20310;-67
2022/03/10 01:09:06;;;;;;;26.55;18.88;;;3.80;74.50;;;;;;5052409;28;20204;-67
2022/03/10 01:11:34;;;;;;;32.20;18.27;;;3.70;74.50;;;;;;5052426;28;20225;-67
2022/03/10 01:14:01;;;;;;;31.70;19.23;;;3.80;74.90;;;;;;5051997;28;20207;-66
2022/03/10 01:16:28;;;;;;;30.27;19.85;;;3.80;74.80;;;;;;5053309;28;20231;-67
2022/03/10 01:18:55;;;;;;;34.38;20.13;;;3.80;75.10;;;;;;5053290;28;20294;-67
2022/03/10 01:21:22;;;;;;;30.77;20.48;;;3.80;75.40;;;;;;5053549;28;20199;-67
2022/03/10 01:23:49;;;;;;;32.80;20.00;;;3.80;75.50;;;;;;5053098;28;20203;-67
2022/03/10 01:26:15;;;;;;;34.10;19.95;;;3.80;75.40;;;;;;5053073;28;20734;-67
2022/03/10 01:28:43;;;;;;;34.05;21.52;;;3.70;75.50;;;;;;5053443;28;20230;-67
2022/03/10 01:31:10;;;;;;;30.00;18.55;;;3.70;75.50;;;;;;5053321;28;20583;-67
2022/03/10 01:33:37;;;;;;;33.33;20.08;;;3.70;75.60;;;;;;5053151;28;20294;-67
2022/03/10 01:36:04;;;;;;;33.08;20.30;;;3.60;75.80;;;;;;5053548;28;20229;-67
2022/03/10 01:38:31;;;;;;;31.05;20.33;;;3.60;75.90;;;;;;5053172;28;20230;-67
2022/03/10 01:40:58;;;;;;;30.15;19.23;;;3.60;76.20;;;;;;5053246;28;20294;-67
2022/03/10 01:43:25;;;;;;;29.27;19.15;;;3.60;76.50;;;;;;5052867;28;20203;-67
2022/03/10 01:45:53;;;;;;;32.75;19.75;;;3.50;76.80;;;;;;5053231;28;20257;-67
2022/03/10 01:48:20;;;;;;;27.88;19.05;;;3.50;77.10;;;;;;5053204;28;20243;-67
2022/03/10 01:50:47;;;;;;;32.05;20.52;;;3.40;77.30;;;;;;5053103;28;20205;-67
2022/03/10 01:53:14;;;;;;;28.45;18.45;;;3.40;77.50;;;;;;5054817;28;20199;-67
2022/03/10 01:55:42;;;;;;;31.75;19.10;;;3.40;77.40;;;;;;5056976;28;20241;-67
2022/03/10 01:58:11;;;;;;;28.48;17.88;;;3.40;77.60;;;;;;5057017;28;20207;-66
2022/03/10 02:00:38;;;;;;;30.15;20.23;;;3.40;77.50;;;;;;5057247;28;20204;-67
2022/03/10 02:03:06;;;;;;;28.80;17.40;;;3.30;78.10;;;;;;5056775;28;20619;-67
2022/03/10 02:05:33;;;;;;;25.08;16.17;;;3.20;78.60;;;;;;5056803;28;20311;-66
2022/03/10 02:10:44;;;;;;;26.65;17.00;;;3.20;79.30;;;;;;5056798;28;20206;-67
2022/03/10 02:13:11;;;;;;;26.67;17.05;;;3.30;79.10;;;;;;5056536;28;20206;-67
2022/03/10 02:18:24;;;;;;;30.67;18.88;;;3.20;78.90;;;;;;5056517;28;20633;-67
2022/03/10 02:20:51;;;;;;;35.35;19.23;;;3.30;79.10;;;;;;5057137;28;20294;-67
2022/03/10 02:23:19;;;;;;;30.60;19.85;;;3.20;78.90;;;;;;5056367;28;20203;-67
2022/03/10 02:25:46;;;;;;;29.63;18.55;;;3.20;79.30;;;;;;5056496;28;20223;-66
2022/03/10 02:28:13;;;;;;;27.48;17.70;;;3.20;80.10;;;;;;5056385;28;20661;-67
2022/03/10 02:30:40;;;;;;;30.25;18.55;;;3.20;79.50;;;;;;5056355;28;20204;-67
2022/03/10 02:33:07;;;;;;;27.63;18.00;;;3.20;80.00;;;;;;5056111;28;20732;-66
2022/03/10 02:35:34;;;;;;;30.67;19.48;;;3.20;80.00;;;;;;5056329;28;20223;-67
2022/03/10 02:38:01;;;;;;;28.30;18.00;;;3.20;79.70;;;;;;5056028;28;20199;-67
2022/03/10 02:40:30;;;;;;;27.88;18.42;;;3.20;79.70;;;;;;5056291;28;20218;-67
2022/03/10 02:42:56;;;;;;;29.45;18.45;;;3.20;79.70;;;;;;5056158;28;20227;-67
2022/03/10 02:45:24;;;;;;;26.73;16.58;;;3.10;80.00;;;;;;5056206;28;20230;-66
2022/03/10 02:47:51;;;;;;;25.00;16.38;;;3.10;80.60;;;;;;5056124;28;20234;-67
2022/03/10 02:50:18;;;;;;;21.88;15.25;;;3.10;81.00;;;;;;5056269;28;20199;-67
2022/03/10 02:52:45;;;;;;;22.83;14.95;;;3.10;81.20;;;;;;5056140;28;20277;-67
2022/03/10 02:55:12;;;;;;;23.42;15.43;;;3.10;80.80;;;;;;5055336;28;20716;-67
2022/03/10 02:57:40;;;;;;;23.77;15.85;;;2.90;80.50;;;;;;5055928;28;20203;-67
2022/03/10 03:00:09;;;;;;;23.85;15.25;;;2.70;81.10;;;;;;5055781;28;20207;-66
2022/03/10 03:02:36;;;;;;;28.15;15.77;;;2.60;81.60;;;;;;5055820;28;20253;-67
2022/03/10 03:05:04;;;;;;;29.02;16.52;;;2.70;81.70;;;;;;5055402;28;20245;-66
2022/03/10 03:07:31;;;;;;;32.88;18.00;;;2.70;82.00;;;;;;5055780;28;20634;-67
2022/03/10 03:09:57;;;;;;;29.02;17.42;;;2.80;82.20;;;;;;5055594;28;20209;-67
2022/03/10 03:12:24;;;;;;;28.13;17.77;;;2.70;82.00;;;;;;5055477;28;20719;-67
2022/03/10 03:14:53;;;;;;;28.17;18.15;;;2.70;82.30;;;;;;5055092;28;20314;-66
2022/03/10 03:17:19;;;;;;;25.52;16.80;;;2.60;82.50;;;;;;5055590;28;20568;-67
2022/03/10 03:19:46;;;;;;;22.77;15.43;;;2.60;82.90;;;;;;5055804;28;20210;-67
2022/03/10 03:22:13;;;;;;;20.60;15.00;;;2.60;82.90;;;;;;5055458;28;20205;-67
2022/03/10 03:24:40;;;;;;;22.08;14.95;;;2.60;83.20;;;;;;5055175;28;20230;-66
2022/03/10 03:27:07;;;;;;;24.73;15.27;;;2.60;83.50;;;;;;5055410;28;20210;-68
2022/03/10 03:29:34;;;;;;;28.20;16.33;;;2.70;83.20;;;;;;5055025;28;20294;-67
2022/03/10 03:32:02;;;;;;;22.83;15.85;;;2.60;83.10;;;;;;5055250;28;20314;-67
2022/03/10 03:34:29;;;;;;;27.85;16.92;;;2.70;83.70;;;;;;5054986;28;20208;-67
2022/03/10 03:36:55;;;;;;;28.95;18.58;;;2.70;83.30;;;;;;5055251;28;20208;-67
2022/03/10 03:39:22;;;;;;;29.60;17.83;;;2.60;83.70;;;;;;5055113;28;20294;-67
2022/03/10 03:41:49;;;;;;;27.45;18.63;;;2.50;84.20;;;;;;5055001;28;20542;-67
2022/03/10 03:44:16;;;;;;;32.00;18.98;;;2.60;84.30;;;;;;5054640;28;20657;-67
2022/03/10 03:46:43;;;;;;;27.38;17.55;;;2.60;84.00;;;;;;5054677;28;20230;-67
2022/03/10 03:49:12;;;;;;;22.10;15.40;;;2.50;84.00;;;;;;5054753;28;20737;-67
2022/03/10 03:51:39;;;;;;;22.83;14.65;;;2.50;84.40;;;;;;5054882;28;20600;-66
2022/03/10 03:54:07;;;;;;;21.30;14.93;;;2.50;84.70;;;;;;5054736;28;20648;-66
2022/03/10 03:56:34;;;;;;;22.45;14.85;;;2.50;85.10;;;;;;5054813;28;20771;-67
2022/03/10 03:59:01;;;;;;;20.88;13.80;;;2.50;85.40;;;;;;5054757;28;20298;-67
2022/03/10 04:01:28;;;;;;;22.27;14.77;;;2.50;85.80;;;;;;5054688;28;20209;-66
2022/03/10 04:03:55;;;;;;;21.70;14.20;;;2.50;85.40;;;;;;5054355;28;20199;-67
2022/03/10 04:06:24;;;;;;;24.38;17.00;;;2.50;85.00;;;;;;5054558;28;20311;-67
2022/03/10 04:08:51;;;;;;;24.85;15.95;;;2.50;84.70;;;;;;5054530;28;20208;-67
2022/03/10 04:11:18;;;;;;;24.88;15.77;;;2.40;84.80;;;;;;5054367;28;20214;-67
2022/03/10 04:13:45;;;;;;;25.20;16.42;;;2.50;85.50;;;;;;5054203;28;20204;-67
2022/03/10 04:16:12;;;;;;;26.83;17.35;;;2.40;86.10;;;;;;5053837;28;20309;-67
2022/03/10 04:18:39;;;;;;;27.10;16.90;;;2.50;86.50;;;;;;5054382;28;20243;-67
2022/03/10 04:21:06;;;;;;;27.88;17.77;;;2.50;85.70;;;;;;5054156;28;20290;-67
2022/03/10 04:23:34;;;;;;;25.75;15.70;;;2.60;85.30;;;;;;5054023;28;20294;-66
2022/03/10 04:26:01;;;;;;;25.95;16.55;;;2.60;85.50;;;;;;5054322;28;20727;-67
2022/03/10 04:28:28;;;;;;;28.70;16.73;;;2.60;85.40;;;;;;5054075;28;20238;-67
2022/03/10 04:30:55;;;;;;;26.90;16.38;;;2.70;84.80;;;;;;5054124;28;20203;-67
2022/03/10 04:33:22;;;;;;;26.77;16.88;;;2.70;84.30;;;;;;5053867;28;20723;-67
2022/03/10 04:35:51;;;;;;;29.50;16.70;;;2.80;84.60;;;;;;5053947;28;20287;-67
2022/03/10 04:38:18;;;;;;;29.80;17.58;;;2.80;85.00;;;;;;5053735;28;20658;-67
2022/03/10 04:40:46;;;;;;;27.70;18.48;;;2.70;84.60;;;;;;5054011;28;20640;-66
2022/03/10 04:43:13;;;;;;;28.48;17.35;;;2.60;84.90;;;;;;5053555;28;20683;-66
2022/03/10 04:45:40;;;;;;;27.80;17.77;;;2.50;86.00;;;;;;5053697;28;20219;-67
2022/03/10 04:48:07;;;;;;;25.73;16.60;;;2.50;85.80;;;;;;5053630;28;20298;-66
2022/03/10 04:50:34;;;;;;;27.55;15.88;;;2.50;85.40;;;;;;5053756;28;20723;-66
2022/03/10 04:53:01;;;;;;;24.83;15.93;;;2.40;85.30;;;;;;5053502;28;20234;-66
2022/03/10 04:55:28;;;;;;;26.92;17.38;;;2.30;86.10;;;;;;5053349;28;20227;-67
2022/03/10 04:57:56;;;;;;;28.35;16.65;;;2.30;86.90;;;;;;5053725;28;20200;-66
2022/03/10 05:00:23;;;;;;;27.60;16.13;;;2.40;87.30;;;;;;5053697;28;20568;-66
2022/03/10 05:02:50;;;;;;;28.65;17.15;;;2.30;87.00;;;;;;5053614;28;20206;-67
2022/03/10 05:05:18;;;;;;;28.58;17.70;;;2.30;87.80;;;;;;5053290;28;20220;-66
2022/03/10 05:07:46;;;;;;;28.38;18.55;;;2.30;88.60;;;;;;5053774;28;20264;-66
2022/03/10 05:10:13;;;;;;;26.88;17.80;;;2.40;88.80;;;;;;5054363;28;20207;-66
2022/03/10 05:12:49;;;;;;;28.15;18.52;;;2.40;88.90;;;;;;5053196;28;20219;-67
2022/03/10 05:15:20;;;;;;;28.00;18.15;;;2.40;88.80;;;;;;5053310;28;20262;-66
2022/03/10 05:17:47;;;;;;;29.23;17.90;;;2.40;89.10;;;;;;5053535;28;20191;-67
2022/03/10 05:20:14;;;;;;;25.75;16.60;;;2.30;88.80;;;;;;5053521;28;20219;-67
2022/03/10 05:22:48;;;;;;;29.15;16.77;;;2.30;89.10;;;;;;5053445;28;20294;-67
2022/03/10 05:25:16;;;;;;;26.55;17.48;;;2.30;88.70;;;;;;5053315;28;20306;-67
2022/03/10 05:27:44;;;;;;;29.38;18.45;;;2.20;89.10;;;;;;5054058;28;20203;-67
2022/03/10 05:30:12;;;;;;;28.58;18.27;;;2.10;89.40;;;;;;5057479;28;20203;-66
2022/03/10 05:32:40;;;;;;;24.02;16.25;;;2.10;90.00;;;;;;5057469;28;20234;-66
2022/03/10 05:35:09;;;;;;;30.50;19.17;;;2.10;90.20;;;;;;5057270;28;20223;-67
2022/03/10 05:37:38;;;;;;;26.13;17.17;;;2.20;90.20;;;;;;5057462;28;20203;-67
2022/03/10 05:40:07;;;;;;;22.98;15.90;;;2.20;90.00;;;;;;5057458;28;20289;-67
2022/03/10 05:42:33;;;;;;;27.75;16.80;;;2.20;90.00;;;;;;5057438;28;20198;-66
2022/03/10 05:45:00;;;;;;;25.33;15.55;;;2.20;90.10;;;;;;5057043;28;20223;-67
2022/03/10 05:47:27;;;;;;;24.63;15.43;;;2.10;90.20;;;;;;5057240;28;20203;-67
2022/03/10 05:49:55;;;;;;;28.55;14.90;;;2.10;90.30;;;;;;5057573;28;20207;-66
2022/03/10 05:52:22;;;;;;;23.75;16.00;;;2.20;90.40;;;;;;5057364;28;20309;-67
2022/03/10 05:54:49;;;;;;;24.00;16.77;;;2.20;90.30;;;;;;5056759;28;20231;-66
2022/03/10 05:57:16;;;;;;;22.63;14.50;;;2.00;90.40;;;;;;5057155;28;20212;-67
2022/03/10 05:59:43;;;;;;;22.92;14.57;;;1.80;90.20;;;;;;5057016;28;20235;-67
2022/03/10 06:02:09;;;;;;;25.30;14.90;;;1.90;90.60;;;;;;5056751;28;20669;-67
2022/03/10 06:04:36;;;;;;;23.45;15.55;;;1.60;91.00;;;;;;5056743;28;20563;-66
2022/03/10 06:07:04;;;;;;;24.85;15.43;;;1.50;91.20;;;;;;5056650;28;20199;-67
2022/03/10 06:09:32;;;;;;;21.25;15.13;;;1.60;91.40;;;;;;5056880;28;20239;-67
2022/03/10 06:11:59;;;;;;;29.52;17.35;;;1.80;91.30;;;;;;5056619;28;20205;-67
2022/03/10 06:14:25;;;;;;;27.35;17.30;;;1.70;91.50;;;;;;5056578;28;20309;-67
2022/03/10 06:16:52;;;;;;;27.40;17.02;;;1.60;92.20;;;;;;5056733;28;20203;-67
2022/03/10 06:19:19;;;;;;;26.80;15.93;;;1.60;92.50;;;;;;5056650;28;20328;-67
2022/03/10 06:21:46;;;;;;;24.65;16.98;;;1.60;92.40;;;;;;5056642;28;20282;-67
2022/03/10 06:24:14;;;;;;;25.02;16.85;;;1.70;92.30;;;;;;5056229;28;20575;-67
2022/03/10 06:26:42;;;;;;;24.98;16.00;;;1.90;92.20;;;;;;5056540;28;20580;-67
2022/03/10 06:29:09;;;;;;;28.38;17.20;;;2.10;91.80;;;;;;5056193;28;20210;-67
2022/03/10 06:31:36;;;;;;;27.13;16.92;;;2.20;91.60;;;;;;5056407;28;20632;-67
2022/03/10 06:34:03;;;;;;;25.70;16.38;;;2.10;91.10;;;;;;5056037;28;20224;-67
2022/03/10 06:36:30;;;;;;;27.73;16.80;;;2.00;91.40;;;;;;5056332;28;20231;-67
2022/03/10 06:38:57;;;;;;;25.10;16.25;;;2.10;91.90;;;;;;5055698;28;20230;-67
2022/03/10 06:41:25;;;;;;;28.17;17.38;;;2.20;91.50;;;;;;5055539;28;20215;-68
2022/03/10 06:43:52;;;;;;;26.30;16.27;;;2.30;91.70;;;;;;5035147;28;20229;-68
2022/03/10 06:46:19;;;;;;;27.25;16.58;;;2.20;91.50;;;;;;5034880;28;20227;-69
2022/03/10 06:48:46;;;;;;;27.40;17.00;;;2.30;91.00;;;;;;5034886;28;20628;-69
2022/03/10 06:51:13;;;;;;;26.83;17.17;;;2.20;91.00;;;;;;5034707;28;20204;-68
2022/03/10 06:53:40;;;;;;;29.88;19.02;;;2.30;91.00;;;;;;5034015;28;20220;-67
2022/03/10 06:56:06;;;;;;;28.77;18.75;;;2.40;91.10;;;;;;5034181;28;20263;-68
2022/03/10 06:58:35;;;;;;;29.67;19.83;;;2.40;91.20;;;;;;5034917;28;20204;-67
2022/03/10 07:01:01;;;;;;;28.30;19.02;;;2.40;91.30;;;;;;5034759;28;20208;-68
2022/03/10 07:03:28;;;;;;;31.65;19.92;;;2.40;91.40;;;;;;5034211;28;20283;-69
2022/03/10 07:05:55;;;;;;;30.90;19.77;;;2.50;91.60;;;;;;5034132;28;20234;-67
2022/03/10 07:08:22;;;;;;;32.17;19.35;;;2.50;91.70;;;;;;5034717;28;20208;-69
2022/03/10 07:10:49;;;;;;;31.85;19.30;;;2.60;91.80;;;;;;5034754;28;20636;-67
2022/03/10 07:13:15;;;;;;;33.10;19.63;;;2.70;91.30;;;;;;5034036;28;20319;-67
2022/03/10 07:15:44;;;;;;;31.90;19.65;;;2.60;91.80;;;;;;5034198;28;20256;-67
2022/03/10 07:18:11;;;;;;;34.10;21.75;;;2.60;91.90;;;;;;5034327;28;20760;-67
2022/03/10 07:20:37;;;;;;;31.17;21.85;;;2.50;91.60;;;;;;5034801;28;20214;-68
2022/03/10 07:23:04;;;;;;;35.28;21.90;;;2.60;91.80;;;;;;5035380;28;20203;-68
2022/03/10 07:25:31;;;;;;;33.53;21.55;;;2.70;92.00;;;;;;5035494;28;20235;-67
2022/03/10 07:27:58;;;;;;;38.25;23.90;;;2.80;91.70;;;;;;5035595;28;20199;-67
2022/03/10 07:30:25;;;;;;;34.75;23.08;;;2.90;91.30;;;;;;5035556;28;20298;-66
2022/03/10 07:32:53;;;;;;;35.30;23.35;;;3.00;91.00;;;;;;5035343;28;20224;-66
2022/03/10 07:35:20;;;;;;;36.90;24.90;;;2.80;90.80;;;;;;5035058;28;20228;-66
2022/03/10 07:37:48;;;;;;;40.40;25.13;;;2.80;91.10;;;;;;5035018;28;20658;-66
2022/03/10 07:40:15;;;;;;;36.10;23.05;;;2.90;90.70;;;;;;5035044;28;20764;-66
2022/03/10 07:42:42;;;;;;;36.38;22.70;;;2.90;90.40;;;;;;5035114;28;20211;-66
2022/03/10 07:45:09;;;;;;;36.55;23.23;;;3.10;90.30;;;;;;5034881;28;20230;-66
2022/03/10 07:47:37;;;;;;;34.70;23.02;;;3.10;90.00;;;;;;5034743;28;20204;-66
2022/03/10 07:50:08;;;;;;;37.80;25.88;;;3.10;89.70;;;;;;5033799;28;20662;-66
2022/03/10 07:52:35;;;;;;;39.47;24.10;;;3.20;90.00;;;;;;5034839;28;20204;-66
2022/03/10 07:55:03;;;;;;;41.67;24.35;;;3.30;89.50;;;;;;5034710;28;20250;-66
2022/03/10 07:57:30;;;;;;;41.85;25.30;;;3.30;89.40;;;;;;5034957;28;20569;-66
2022/03/10 07:59:56;;;;;;;40.63;26.30;;;3.40;89.00;;;;;;5034905;28;20200;-66
2022/03/10 08:02:23;;;;;;;36.22;24.70;;;3.50;88.30;;;;;;5034701;28;20204;-66
2022/03/10 08:04:50;;;;;;;38.60;25.25;;;3.60;87.70;;;;;;5034304;28;20234;-66
2022/03/10 08:07:18;;;;;;;39.15;26.30;;;3.70;87.50;;;;;;5034879;28;20300;-66
2022/03/10 08:09:45;;;;;;;40.78;25.63;;;3.70;86.30;;;;;;5034703;28;20228;-66
2022/03/10 08:12:12;;;;;;;38.47;24.40;;;3.70;85.30;;;;;;5034619;28;20243;-66
2022/03/10 08:14:38;;;;;;;35.38;23.90;;;3.70;85.20;;;;;;5034085;28;20593;-67
2022/03/10 08:17:06;;;;;;;39.17;24.55;;;3.70;85.80;;;;;;5034712;28;20207;-66
2022/03/10 08:19:33;;;;;;;38.83;25.90;;;3.80;84.60;;;;;;5034459;28;20290;-66
2022/03/10 08:22:00;;;;;;;40.72;26.08;;;3.90;84.40;;;;;;5034285;28;20204;-66
2022/03/10 08:24:28;;;;;;;39.83;24.40;;;3.90;83.40;;;;;;5034115;28;20650;-66
2022/03/10 08:26:56;;;;;;;39.72;25.80;;;3.90;83.80;;;;;;5034376;28;20204;-66
2022/03/10 08:29:23;;;;;;;42.58;26.17;;;4.00;83.60;;;;;;5034250;28;20200;-66
2022/03/10 08:31:49;;;;;;;42.00;26.83;;;4.00;83.50;;;;;;5034454;28;20204;-67
2022/03/10 08:34:17;;;;;;;39.67;26.15;;;4.10;83.40;;;;;;5034172;28;20228;-67
2022/03/10 08:36:44;;;;;;;44.38;26.42;;;4.20;83.90;;;;;;5033921;28;20706;-66
2022/03/10 08:39:10;;;;;;;37.88;26.40;;;4.40;84.00;;;;;;5034367;28;20214;-66
2022/03/10 08:41:38;;;;;;;42.35;27.15;;;4.40;84.20;;;;;;5034135;28;20291;-67
2022/03/10 08:44:05;;;;;;;40.88;27.92;;;4.60;84.00;;;;;;5033757;28;20204;-66
2022/03/10 08:46:32;;;;;;;40.28;27.55;;;4.80;84.70;;;;;;5034089;28;20238;-66
2022/03/10 08:49:00;;;;;;;41.03;26.17;;;4.90;83.90;;;;;;5034102;28;20204;-66
2022/03/10 08:51:28;;;;;;;41.30;27.30;;;4.90;83.80;;;;;;5034014;28;20208;-66
2022/03/10 08:53:54;;;;;;;37.58;24.55;;;4.90;83.30;;;;;;5033669;28;20247;-67
2022/03/10 08:56:21;;;;;;;35.20;23.52;;;5.00;83.00;;;;;;5033541;28;20242;-67
2022/03/10 08:58:49;;;;;;;38.88;25.55;;;5.00;84.50;;;;;;5034144;28;20210;-66
2022/03/10 09:01:17;;;;;;;33.35;21.85;;;5.00;83.90;;;;;;5033531;28;20247;-67
2022/03/10 09:03:44;;;;;;;31.42;22.10;;;5.20;84.20;;;;;;5033606;28;20204;-66
2022/03/10 09:06:12;;;;;;;29.10;21.98;;;5.30;84.10;;;;;;5033815;28;20334;-67
2022/03/10 09:08:39;;;;;;;26.65;20.02;;;5.60;81.90;;;;;;5033766;28;20247;-67
2022/03/10 09:11:06;;;;;;;33.97;21.80;;;5.70;81.90;;;;;;5033756;28;20208;-67
2022/03/10 09:13:33;;;;;;;35.47;21.15;;;6.10;80.90;;;;;;5033542;28;20580;-67
2022/03/10 09:16:01;;;;;;;31.58;20.52;;;6.50;78.70;;;;;;5033876;28;20277;-67
2022/03/10 09:18:28;;;;;;;30.95;22.45;;;6.90;77.00;;;;;;5033673;28;20254;-67
2022/03/10 09:20:55;;;;;;;32.03;20.90;;;7.00;74.90;;;;;;5033678;28;20296;-67
2022/03/10 09:23:22;;;;;;;33.25;21.95;;;7.10;74.70;;;;;;5033383;28;20212;-67
2022/03/10 09:25:49;;;;;;;34.90;22.45;;;7.10;74.80;;;;;;5033379;28;20235;-66
2022/03/10 09:28:15;;;;;;;29.45;21.55;;;7.20;74.20;;;;;;5033852;28;20262;-67
2022/03/10 09:30:42;;;;;;;30.77;23.30;;;7.10;74.60;;;;;;5033544;28;20204;-67
2022/03/10 09:33:11;;;;;;;31.88;21.67;;;7.30;74.30;;;;;;5033135;28;20688;-67
2022/03/10 09:35:38;;;;;;;29.75;22.60;;;7.50;74.50;;;;;;5033150;28;20713;-67
2022/03/10 09:38:04;;;;;;;28.08;21.73;;;7.60;72.30;;;;;;5033113;28;20204;-67
2022/03/10 09:40:31;;;;;;;26.83;20.17;;;7.70;72.40;;;;;;5034224;28;20247;-67
2022/03/10 09:42:58;;;;;;;30.95;20.95;;;7.70;72.10;;;;;;5033026;28;20213;-66
2022/03/10 09:45:28;;;;;;;28.05;20.08;;;7.80;71.60;;;;;;5033253;28;20733;-67
2022/03/10 09:47:54;;;;;;;31.23;20.77;;;7.90;70.60;;;;;;5033669;28;20562;-67
2022/03/10 09:50:23;;;;;;;28.50;20.80;;;8.00;71.50;;;;;;5033218;28;20254;-67
2022/03/10 09:52:50;;;;;;;30.15;21.33;;;8.10;70.70;;;;;;5033299;28;20211;-67
2022/03/10 09:55:19;;;;;;;33.85;20.60;;;8.20;70.60;;;;;;5032867;28;20597;-66
2022/03/10 09:57:47;;;;;;;26.90;20.08;;;8.50;70.30;;;;;;5033251;28;20251;-67
2022/03/10 10:00:17;;;;;;;25.35;19.50;;;8.70;69.60;;;;;;5033269;28;20211;-67
2022/03/10 10:02:45;;;;;;;27.42;19.33;;;9.10;68.00;;;;;;5033209;28;20206;-67
2022/03/10 10:05:24;;;;;;;29.65;20.13;;;9.30;67.40;;;;;;5032737;28;20228;-67
2022/03/10 10:08:06;;;;;;;29.33;18.88;;;9.50;65.90;;;;;;5032988;28;20654;-67
2022/03/10 10:10:35;;;;;;;25.98;19.48;;;9.70;66.80;;;;;;5033187;28;20204;-67
2022/03/10 10:13:06;;;;;;;27.67;19.90;;;9.80;65.30;;;;;;5032943;28;20211;-66
2022/03/10 10:15:37;;;;;;;26.50;18.63;;;10.00;62.40;;;;;;5036710;28;20592;-66
2022/03/10 10:18:05;;;;;;;26.98;18.88;;;10.20;60.80;;;;;;5037312;28;20240;-67
2022/03/10 10:20:44;;;;;;;23.52;17.90;;;10.80;60.30;;;;;;5036689;28;20207;-67
2022/03/10 10:23:23;;;;;;;23.77;16.80;;;11.70;58.20;;;;;;5036415;28;20584;-67
2022/03/10 10:25:52;;;;;;;23.58;16.90;;;13.00;56.80;;;;;;5036567;28;20235;-67
2022/03/10 10:28:23;;;;;;;28.00;18.38;;;13.70;54.10;;;;;;5036357;28;20657;-67
2022/03/10 10:30:54;;;;;;;21.23;17.40;;;14.40;52.30;;;;;;5036580;28;20214;-67
2022/03/10 10:33:22;;;;;;;22.05;17.77;;;15.20;50.00;;;;;;5036249;28;20202;-67
2022/03/10 10:35:50;;;;;;;21.33;16.17;;;15.20;48.70;;;;;;5036849;28;20245;-67
2022/03/10 10:38:30;;;;;;;19.55;16.70;;;15.10;48.80;;;;;;5036149;28;20234;-67
2022/03/10 10:41:22;;;;;;;20.35;15.23;;;16.00;48.00;;;;;;5036149;28;20208;-67
2022/03/10 10:43:50;;;;;;;14.52;11.98;;;17.20;47.30;;;;;;5036081;28;20208;-67
2022/03/10 10:46:30;;;;;;;10.00;9.00;;;18.40;43.90;;;;;;5036270;28;20233;-67
2022/03/10 10:48:59;;;;;;;8.50;7.43;;;19.00;43.10;;;;;;5036351;28;20475;-67
2022/03/10 10:51:30;;;;;;;8.13;7.33;;;19.00;40.00;;;;;;5036114;28;20456;-67
2022/03/10 10:53:57;;;;;;;8.30;7.43;;;19.00;39.50;;;;;;5035910;28;20473;-67
2022/03/10 10:56:24;;;;;;;8.57;7.63;;;19.50;39.60;;;;;;5035674;28;20491;-67
2022/03/10 10:58:54;;;;;;;8.33;7.40;;;19.40;39.30;;;;;;5035978;28;20453;-67
2022/03/10 11:01:28;;;;;;;7.60;6.90;;;19.50;38.80;;;;;;5035840;28;20456;-67
2022/03/10 11:03:56;;;;;;;8.17;7.37;;;19.60;37.70;;;;;;5035794;28;20944;-68
2022/03/10 11:06:24;;;;;;;8.27;7.43;;;19.80;36.70;;;;;;5035686;28;20473;-67
2022/03/10 11:08:53;;;;;;;6.60;5.73;;;19.80;36.70;;;;;;5035798;28;20449;-67
2022/03/10 11:11:20;;;;;;;6.00;5.40;;;19.90;36.00;;;;;;5035795;28;20442;-67
2022/03/10 11:13:47;;;;;;;5.40;4.90;;;20.60;36.40;;;;;;5035365;28;20536;-68
2022/03/10 11:16:16;;;;;;;5.97;4.83;;;21.20;33.90;;;;;;5035379;28;20467;-68
2022/03/10 11:18:47;;;;;;;5.20;4.70;;;21.40;34.50;;;;;;5035601;28;20442;-65
2022/03/10 11:21:42;;;;;;;5.00;4.60;;;22.20;33.70;;;;;;5035447;28;20799;-65
2022/03/10 11:24:30;;;;;;;4.67;4.27;;;22.80;31.40;;;;;;5035422;28;20444;-65
2022/03/10 11:27:07;;;;;;;6.70;4.70;;;23.40;31.80;;;;;;5035578;28;20441;-65
2022/03/10 11:29:35;;;;;;;5.07;4.57;;;23.50;30.30;;;;;;5035531;28;20511;-65
2022/03/10 11:32:06;;;;;;;4.83;4.10;;;24.10;30.80;;;;;;5035409;28;20453;-65
2022/03/10 11:34:47;;;;;;;5.00;4.50;;;24.30;29.30;;;;;;5035092;28;20486;-66
2022/03/10 11:37:14;;;;;;;4.77;4.37;;;24.40;29.40;;;;;;5035300;28;20451;-65
2022/03/10 11:39:55;;;;;;;4.83;4.43;;;25.10;29.30;;;;;;5035543;28;20445;-65
2022/03/10 11:42:28;;;;;;;4.70;4.30;;;25.60;28.20;;;;;;5035198;28;20458;-65
2022/03/10 11:45:09;;;;;;;5.10;4.70;;;25.70;28.10;;;;;;5034973;28;20466;-66
2022/03/10 11:47:37;;;;;;;5.37;4.97;;;25.40;27.70;;;;;;5035117;28;20458;-65
2022/03/10 11:50:26;;;;;;;5.67;5.00;;;24.40;28.40;;;;;;5035100;28;20441;-65
2022/03/10 11:52:58;;;;;;;5.80;5.03;;;23.40;28.90;;;;;;5035187;28;20446;-65
2022/03/10 11:55:39;;;;;;;6.10;5.60;;;22.10;29.20;;;;;;5034769;28;20854;-65
2022/03/10 11:58:06;;;;;;;5.90;5.27;;;20.40;30.10;;;;;;5034925;28;20507;-65
2022/03/10 12:00:50;;;;;;;6.15;5.55;;;19.50;31.80;;;;;;5034833;28;20792;-65
2022/03/10 12:03:21;;;;;;;4.35;4.05;;;18.80;32.50;;;;;;5033393;28;20213;-65
2022/03/10 12:05:52;;;;;;;4.80;4.40;;;19.10;32.50;;;;;;5034563;28;20232;-65
2022/03/10 12:08:19;;;;;;;4.50;4.10;;;20.10;32.00;;;;;;5034680;28;20500;-65
2022/03/10 12:10:48;;;;;;;4.67;4.30;;;20.90;30.90;;;;;;5034632;28;20476;-65
2022/03/10 12:13:28;;;;;;;4.67;4.27;;;21.80;30.30;;;;;;5034173;28;20926;-65
2022/03/10 12:15:55;;;;;;;3.73;3.43;;;23.00;29.90;;;;;;5035172;28;20557;-65
2022/03/10 12:18:30;;;;;;;4.10;3.70;;;23.40;28.30;;;;;;5034247;28;20458;-66
2022/03/10 12:20:58;;;;;;;6.87;4.90;;;24.00;27.90;;;;;;5034429;28;20533;-65
2022/03/10 12:23:26;;;;;;;5.83;5.23;;;23.70;28.10;;;;;;5034227;28;20450;-68
2022/03/10 12:25:58;;;;;;;4.73;4.33;;;24.00;28.10;;;;;;5033923;28;20547;-68
2022/03/10 12:28:34;;;;;;;4.60;4.30;;;23.50;27.40;;;;;;5034332;28;20460;-66
2022/03/10 12:31:12;;;;;;;5.87;5.27;;;23.40;27.80;;;;;;5034310;28;20815;-65
2022/03/10 12:33:46;;;;;;;5.97;5.37;;;23.00;27.60;;;;;;5034103;28;20492;-65
2022/03/10 12:36:15;;;;;;;5.63;5.13;;;22.50;28.30;;;;;;5033823;28;20510;-65
2022/03/10 12:38:45;;;;;;;5.73;5.23;;;22.00;28.30;;;;;;5034037;28;20447;-65
2022/03/10 12:41:14;;;;;;;5.77;5.27;;;21.30;29.00;;;;;;5034380;28;20948;-65
2022/03/10 12:43:42;;;;;;;7.72;5.80;;;20.00;29.50;;;;;;5034143;28;20526;-65
2022/03/10 12:46:09;;;;;;;5.50;5.00;;;19.00;30.40;;;;;;5034147;28;20228;-65
2022/03/10 12:48:47;;;;;;;5.80;5.28;;;18.50;31.20;;;;;;5034018;28;20204;-65